sensor_id;sensor_type;location;lat;lon;timestamp;P1;durP1;ratioP1;P2;durP2;ratioP2
4508;SDS011;2267;48.816;9.230;2023-03-19T00:02:08;10.10;;;9.10;;
4508;SDS011;2267;48.816;9.230;2023-03-19T00:04:43;10.33;;;9.43;;
4508;SDS011;2267;48.816;9.230;2023-03-19T00:07:11;12.60;;;10.23;;
4508;SDS011;2267;48.816;9.230;2023-03-19T00:09:39;11.80;;;10.60;;
4508;SDS011;2267;48.816;9.230;2023-03-19T00:12:07;10.60;;;9.50;;
4508;SDS011;2267;48.816;9.230;2023-03-19T00:14:34;9.80;;;8.80;;
4508;SDS011;2267;48.816;9.230;2023-03-19T00:17:01;12.70;;;9.70;;
4508;SDS011;2267;48.816;9.230;2023-03-19T00:19:30;12.03;;;10.83;;
4508;SDS011;2267;48.816;9.230;2023-03-19T00:21:56;10.90;;;9.80;;
4508;SDS011;2267;48.816;9.230;2023-03-19T00:24:23;10.83;;;9.93;;
4508;SDS011;2267;48.816;9.230;2023-03-19T00:26:50;10.87;;;9.77;;
4508;SDS011;2267;48.816;9.230;2023-03-19T00:29:17;11.33;;;10.23;;
4508;SDS011;2267;48.816;9.230;2023-03-19T00:31:44;11.03;;;9.97;;
4508;SDS011;2267;48.816;9.230;2023-03-19T00:34:11;10.30;;;9.30;;
4508;SDS011;2267;48.816;9.230;2023-03-19T00:36:39;11.63;;;10.43;;
4508;SDS011;2267;48.816;9.230;2023-03-19T00:39:05;11.60;;;10.13;;
4508;SDS011;2267;48.816;9.230;2023-03-19T00:41:32;10.40;;;9.50;;
4508;SDS011;2267;48.816;9.230;2023-03-19T00:43:59;10.63;;;9.63;;
4508;SDS011;2267;48.816;9.230;2023-03-19T00:46:26;11.93;;;10.70;;
4508;SDS011;2267;48.816;9.230;2023-03-19T00:48:53;11.93;;;9.43;;
4508;SDS011;2267;48.816;9.230;2023-03-19T00:51:21;10.40;;;9.30;;
4508;SDS011;2267;48.816;9.230;2023-03-19T00:53:49;9.83;;;8.93;;
4508;SDS011;2267;48.816;9.230;2023-03-19T00:56:17;11.17;;;9.63;;
4508;SDS011;2267;48.816;9.230;2023-03-19T00:58:44;13.80;;;10.37;;
4508;SDS011;2267;48.816;9.230;2023-03-19T01:01:13;17.47;;;11.63;;
4508;SDS011;2267;48.816;9.230;2023-03-19T01:03:42;12.27;;;11.07;;
4508;SDS011;2267;48.816;9.230;2023-03-19T01:06:10;12.80;;;11.37;;
4508;SDS011;2267;48.816;9.230;2023-03-19T01:08:37;12.93;;;11.73;;
4508;SDS011;2267;48.816;9.230;2023-03-19T01:11:09;12.13;;;10.93;;
4508;SDS011;2267;48.816;9.230;2023-03-19T01:13:37;10.90;;;9.93;;
4508;SDS011;2267;48.816;9.230;2023-03-19T01:16:04;13.93;;;11.13;;
4508;SDS011;2267;48.816;9.230;2023-03-19T01:18:31;11.73;;;10.70;;
4508;SDS011;2267;48.816;9.230;2023-03-19T01:20:58;11.93;;;10.53;;
4508;SDS011;2267;48.816;9.230;2023-03-19T01:23:27;11.33;;;10.30;;
4508;SDS011;2267;48.816;9.230;2023-03-19T01:25:54;11.17;;;10.07;;
4508;SDS011;2267;48.816;9.230;2023-03-19T01:28:22;12.33;;;11.03;;
4508;SDS011;2267;48.816;9.230;2023-03-19T01:30:49;11.80;;;10.70;;
4508;SDS011;2267;48.816;9.230;2023-03-19T01:33:16;11.50;;;10.40;;
4508;SDS011;2267;48.816;9.230;2023-03-19T01:35:45;14.10;;;9.97;;
4508;SDS011;2267;48.816;9.230;2023-03-19T01:38:15;10.90;;;9.90;;
4508;SDS011;2267;48.816;9.230;2023-03-19T01:40:44;11.80;;;10.60;;
4508;SDS011;2267;48.816;9.230;2023-03-19T01:43:17;11.67;;;9.73;;
4508;SDS011;2267;48.816;9.230;2023-03-19T01:45:44;13.80;;;11.50;;
4508;SDS011;2267;48.816;9.230;2023-03-19T01:48:36;12.37;;;10.37;;
4508;SDS011;2267;48.816;9.230;2023-03-19T01:51:09;11.53;;;10.43;;
4508;SDS011;2267;48.816;9.230;2023-03-19T01:53:39;11.70;;;10.10;;
4508;SDS011;2267;48.816;9.230;2023-03-19T01:59:07;11.67;;;10.57;;
4508;SDS011;2267;48.816;9.230;2023-03-19T02:01:46;11.17;;;10.17;;
4508;SDS011;2267;48.816;9.230;2023-03-19T02:04:18;13.17;;;9.93;;
4508;SDS011;2267;48.816;9.230;2023-03-19T02:06:46;10.77;;;9.77;;
4508;SDS011;2267;48.816;9.230;2023-03-19T02:09:13;10.63;;;9.53;;
4508;SDS011;2267;48.816;9.230;2023-03-19T02:11:43;11.67;;;10.47;;
4508;SDS011;2267;48.816;9.230;2023-03-19T02:14:11;12.80;;;10.80;;
4508;SDS011;2267;48.816;9.230;2023-03-19T02:16:38;11.47;;;10.43;;
4508;SDS011;2267;48.816;9.230;2023-03-19T02:19:05;12.23;;;11.03;;
4508;SDS011;2267;48.816;9.230;2023-03-19T02:21:38;12.10;;;10.80;;
4508;SDS011;2267;48.816;9.230;2023-03-19T02:24:05;11.17;;;10.07;;
4508;SDS011;2267;48.816;9.230;2023-03-19T02:26:34;12.00;;;10.80;;
4508;SDS011;2267;48.816;9.230;2023-03-19T02:29:02;11.50;;;10.03;;
4508;SDS011;2267;48.816;9.230;2023-03-19T02:31:29;12.27;;;10.97;;
4508;SDS011;2267;48.816;9.230;2023-03-19T02:33:59;11.53;;;10.27;;
4508;SDS011;2267;48.816;9.230;2023-03-19T02:36:32;12.60;;;11.50;;
4508;SDS011;2267;48.816;9.230;2023-03-19T02:39:06;11.40;;;10.30;;
4508;SDS011;2267;48.816;9.230;2023-03-19T02:41:40;11.43;;;10.43;;
4508;SDS011;2267;48.816;9.230;2023-03-19T02:44:09;10.80;;;9.70;;
4508;SDS011;2267;48.816;9.230;2023-03-19T02:46:37;11.10;;;10.20;;
4508;SDS011;2267;48.816;9.230;2023-03-19T02:49:04;10.37;;;9.47;;
4508;SDS011;2267;48.816;9.230;2023-03-19T02:51:31;11.13;;;10.13;;
4508;SDS011;2267;48.816;9.230;2023-03-19T02:53:58;9.90;;;9.00;;
4508;SDS011;2267;48.816;9.230;2023-03-19T02:56:26;9.30;;;8.40;;
4508;SDS011;2267;48.816;9.230;2023-03-19T02:58:52;10.73;;;9.60;;
4508;SDS011;2267;48.816;9.230;2023-03-19T03:01:19;8.73;;;8.03;;
4508;SDS011;2267;48.816;9.230;2023-03-19T03:03:46;7.73;;;7.13;;
4508;SDS011;2267;48.816;9.230;2023-03-19T03:06:13;9.60;;;8.07;;
4508;SDS011;2267;48.816;9.230;2023-03-19T03:08:40;7.97;;;7.33;;
4508;SDS011;2267;48.816;9.230;2023-03-19T03:11:07;7.70;;;7.10;;
4508;SDS011;2267;48.816;9.230;2023-03-19T03:13:34;6.90;;;6.30;;
4508;SDS011;2267;48.816;9.230;2023-03-19T03:16:01;6.57;;;6.07;;
4508;SDS011;2267;48.816;9.230;2023-03-19T03:18:28;6.83;;;5.53;;
4508;SDS011;2267;48.816;9.230;2023-03-19T03:20:56;6.00;;;5.43;;
4508;SDS011;2267;48.816;9.230;2023-03-19T03:23:23;7.83;;;7.23;;
4508;SDS011;2267;48.816;9.230;2023-03-19T03:25:50;6.80;;;6.20;;
4508;SDS011;2267;48.816;9.230;2023-03-19T03:28:17;10.83;;;7.53;;
4508;SDS011;2267;48.816;9.230;2023-03-19T03:30:44;8.90;;;6.70;;
4508;SDS011;2267;48.816;9.230;2023-03-19T03:33:12;6.70;;;6.10;;
4508;SDS011;2267;48.816;9.230;2023-03-19T03:35:39;8.70;;;6.00;;
4508;SDS011;2267;48.816;9.230;2023-03-19T03:38:06;7.30;;;5.60;;
4508;SDS011;2267;48.816;9.230;2023-03-19T03:40:32;6.90;;;6.27;;
4508;SDS011;2267;48.816;9.230;2023-03-19T03:43:00;7.87;;;7.17;;
4508;SDS011;2267;48.816;9.230;2023-03-19T03:45:27;5.03;;;4.53;;
4508;SDS011;2267;48.816;9.230;2023-03-19T03:47:54;6.13;;;5.33;;
4508;SDS011;2267;48.816;9.230;2023-03-19T03:50:21;5.90;;;5.30;;
4508;SDS011;2267;48.816;9.230;2023-03-19T03:52:48;7.30;;;6.60;;
4508;SDS011;2267;48.816;9.230;2023-03-19T03:55:14;6.60;;;6.03;;
4508;SDS011;2267;48.816;9.230;2023-03-19T03:57:41;6.93;;;6.33;;
4508;SDS011;2267;48.816;9.230;2023-03-19T04:00:08;7.73;;;6.57;;
4508;SDS011;2267;48.816;9.230;2023-03-19T04:02:36;7.30;;;6.60;;
4508;SDS011;2267;48.816;9.230;2023-03-19T04:05:03;7.30;;;6.60;;
4508;SDS011;2267;48.816;9.230;2023-03-19T04:07:30;8.13;;;7.20;;
4508;SDS011;2267;48.816;9.230;2023-03-19T04:09:57;7.87;;;7.17;;
4508;SDS011;2267;48.816;9.230;2023-03-19T04:12:24;7.27;;;6.57;;
4508;SDS011;2267;48.816;9.230;2023-03-19T04:14:51;6.57;;;5.97;;
4508;SDS011;2267;48.816;9.230;2023-03-19T04:17:18;6.33;;;5.83;;
4508;SDS011;2267;48.816;9.230;2023-03-19T04:19:44;7.47;;;6.77;;
4508;SDS011;2267;48.816;9.230;2023-03-19T04:22:12;6.90;;;6.30;;
4508;SDS011;2267;48.816;9.230;2023-03-19T04:24:39;7.83;;;7.03;;
4508;SDS011;2267;48.816;9.230;2023-03-19T04:27:06;7.73;;;7.03;;
4508;SDS011;2267;48.816;9.230;2023-03-19T04:29:33;6.73;;;6.10;;
4508;SDS011;2267;48.816;9.230;2023-03-19T04:32:00;8.90;;;6.40;;
4508;SDS011;2267;48.816;9.230;2023-03-19T04:34:27;7.97;;;6.80;;
4508;SDS011;2267;48.816;9.230;2023-03-19T04:36:54;8.17;;;6.53;;
4508;SDS011;2267;48.816;9.230;2023-03-19T04:39:21;7.17;;;6.57;;
4508;SDS011;2267;48.816;9.230;2023-03-19T04:41:49;7.70;;;6.90;;
4508;SDS011;2267;48.816;9.230;2023-03-19T04:44:16;6.93;;;6.23;;
4508;SDS011;2267;48.816;9.230;2023-03-19T04:46:43;8.30;;;7.50;;
4508;SDS011;2267;48.816;9.230;2023-03-19T04:49:11;9.23;;;7.37;;
4508;SDS011;2267;48.816;9.230;2023-03-19T04:51:38;7.13;;;5.27;;
4508;SDS011;2267;48.816;9.230;2023-03-19T04:54:05;6.20;;;5.60;;
4508;SDS011;2267;48.816;9.230;2023-03-19T04:56:33;6.07;;;5.50;;
4508;SDS011;2267;48.816;9.230;2023-03-19T04:58:59;6.47;;;5.53;;
4508;SDS011;2267;48.816;9.230;2023-03-19T05:01:26;5.90;;;5.30;;
4508;SDS011;2267;48.816;9.230;2023-03-19T05:03:53;6.03;;;5.43;;
4508;SDS011;2267;48.816;9.230;2023-03-19T05:06:20;5.87;;;5.37;;
4508;SDS011;2267;48.816;9.230;2023-03-19T05:08:47;5.20;;;4.70;;
4508;SDS011;2267;48.816;9.230;2023-03-19T05:11:13;6.50;;;5.87;;
4508;SDS011;2267;48.816;9.230;2023-03-19T05:13:40;6.20;;;5.60;;
4508;SDS011;2267;48.816;9.230;2023-03-19T05:16:07;5.80;;;5.13;;
4508;SDS011;2267;48.816;9.230;2023-03-19T05:18:34;7.63;;;6.13;;
4508;SDS011;2267;48.816;9.230;2023-03-19T05:21:01;5.97;;;5.50;;
4508;SDS011;2267;48.816;9.230;2023-03-19T05:23:30;6.00;;;5.40;;
4508;SDS011;2267;48.816;9.230;2023-03-19T05:25:57;6.00;;;5.40;;
4508;SDS011;2267;48.816;9.230;2023-03-19T05:28:26;6.47;;;5.83;;
4508;SDS011;2267;48.816;9.230;2023-03-19T05:30:53;6.40;;;5.90;;
4508;SDS011;2267;48.816;9.230;2023-03-19T05:33:20;6.10;;;5.50;;
4508;SDS011;2267;48.816;9.230;2023-03-19T05:35:47;6.87;;;5.50;;
4508;SDS011;2267;48.816;9.230;2023-03-19T05:38:14;6.50;;;5.90;;
4508;SDS011;2267;48.816;9.230;2023-03-19T05:40:41;6.27;;;5.67;;
4508;SDS011;2267;48.816;9.230;2023-03-19T05:43:08;6.10;;;5.60;;
4508;SDS011;2267;48.816;9.230;2023-03-19T05:45:36;5.37;;;4.87;;
4508;SDS011;2267;48.816;9.230;2023-03-19T05:48:03;7.70;;;5.97;;
4508;SDS011;2267;48.816;9.230;2023-03-19T05:50:31;6.67;;;6.03;;
4508;SDS011;2267;48.816;9.230;2023-03-19T05:52:59;6.80;;;6.10;;
4508;SDS011;2267;48.816;9.230;2023-03-19T05:55:26;6.67;;;6.13;;
4508;SDS011;2267;48.816;9.230;2023-03-19T05:57:52;5.60;;;5.20;;
4508;SDS011;2267;48.816;9.230;2023-03-19T06:00:19;6.47;;;5.90;;
4508;SDS011;2267;48.816;9.230;2023-03-19T06:02:46;8.00;;;6.60;;
4508;SDS011;2267;48.816;9.230;2023-03-19T06:05:13;6.20;;;5.60;;
4508;SDS011;2267;48.816;9.230;2023-03-19T06:07:40;6.83;;;6.23;;
4508;SDS011;2267;48.816;9.230;2023-03-19T06:10:08;8.83;;;6.27;;
4508;SDS011;2267;48.816;9.230;2023-03-19T06:12:35;6.50;;;5.93;;
4508;SDS011;2267;48.816;9.230;2023-03-19T06:15:02;5.63;;;5.23;;
4508;SDS011;2267;48.816;9.230;2023-03-19T06:17:29;7.57;;;5.80;;
4508;SDS011;2267;48.816;9.230;2023-03-19T06:19:55;6.50;;;5.90;;
4508;SDS011;2267;48.816;9.230;2023-03-19T06:22:22;6.63;;;6.03;;
4508;SDS011;2267;48.816;9.230;2023-03-19T06:24:49;5.17;;;4.73;;
4508;SDS011;2267;48.816;9.230;2023-03-19T06:27:16;8.40;;;6.17;;
4508;SDS011;2267;48.816;9.230;2023-03-19T06:29:43;6.57;;;5.97;;
4508;SDS011;2267;48.816;9.230;2023-03-19T06:32:10;5.77;;;5.10;;
4508;SDS011;2267;48.816;9.230;2023-03-19T06:34:38;6.13;;;5.63;;
4508;SDS011;2267;48.816;9.230;2023-03-19T06:37:04;5.60;;;5.10;;
4508;SDS011;2267;48.816;9.230;2023-03-19T06:39:31;6.27;;;5.67;;
4508;SDS011;2267;48.816;9.230;2023-03-19T06:41:58;6.53;;;5.93;;
4508;SDS011;2267;48.816;9.230;2023-03-19T06:44:25;6.30;;;5.70;;
4508;SDS011;2267;48.816;9.230;2023-03-19T06:46:52;6.50;;;5.90;;
4508;SDS011;2267;48.816;9.230;2023-03-19T06:49:19;6.50;;;5.87;;
4508;SDS011;2267;48.816;9.230;2023-03-19T06:51:46;7.07;;;6.40;;
4508;SDS011;2267;48.816;9.230;2023-03-19T06:54:12;6.03;;;5.53;;
4508;SDS011;2267;48.816;9.230;2023-03-19T06:56:39;6.87;;;6.10;;
4508;SDS011;2267;48.816;9.230;2023-03-19T06:59:06;6.43;;;5.83;;
4508;SDS011;2267;48.816;9.230;2023-03-19T07:01:33;6.40;;;5.80;;
4508;SDS011;2267;48.816;9.230;2023-03-19T07:03:59;7.80;;;5.30;;
4508;SDS011;2267;48.816;9.230;2023-03-19T07:06:26;5.37;;;4.87;;
4508;SDS011;2267;48.816;9.230;2023-03-19T07:08:53;5.80;;;5.30;;
4508;SDS011;2267;48.816;9.230;2023-03-19T07:11:20;5.30;;;4.90;;
4508;SDS011;2267;48.816;9.230;2023-03-19T07:13:46;5.77;;;5.27;;
4508;SDS011;2267;48.816;9.230;2023-03-19T07:16:13;4.67;;;4.30;;
4508;SDS011;2267;48.816;9.230;2023-03-19T07:18:40;4.83;;;3.83;;
4508;SDS011;2267;48.816;9.230;2023-03-19T07:21:07;6.23;;;5.10;;
4508;SDS011;2267;48.816;9.230;2023-03-19T07:23:33;6.13;;;5.53;;
4508;SDS011;2267;48.816;9.230;2023-03-19T07:26:00;5.07;;;4.57;;
4508;SDS011;2267;48.816;9.230;2023-03-19T07:28:27;5.90;;;5.30;;
4508;SDS011;2267;48.816;9.230;2023-03-19T07:30:54;5.43;;;5.03;;
4508;SDS011;2267;48.816;9.230;2023-03-19T07:33:21;5.40;;;5.00;;
4508;SDS011;2267;48.816;9.230;2023-03-19T07:35:48;6.00;;;5.00;;
4508;SDS011;2267;48.816;9.230;2023-03-19T07:38:15;5.10;;;4.70;;
4508;SDS011;2267;48.816;9.230;2023-03-19T07:40:42;6.17;;;5.57;;
4508;SDS011;2267;48.816;9.230;2023-03-19T07:43:26;5.50;;;5.00;;
4508;SDS011;2267;48.816;9.230;2023-03-19T07:45:53;7.33;;;6.67;;
4508;SDS011;2267;48.816;9.230;2023-03-19T07:48:19;5.93;;;5.40;;
4508;SDS011;2267;48.816;9.230;2023-03-19T07:50:48;6.47;;;5.87;;
4508;SDS011;2267;48.816;9.230;2023-03-19T07:53:16;5.50;;;5.00;;
4508;SDS011;2267;48.816;9.230;2023-03-19T07:55:43;5.73;;;5.07;;
4508;SDS011;2267;48.816;9.230;2023-03-19T07:58:10;4.87;;;4.33;;
4508;SDS011;2267;48.816;9.230;2023-03-19T08:00:37;5.93;;;4.90;;
4508;SDS011;2267;48.816;9.230;2023-03-19T08:03:04;5.70;;;5.20;;
4508;SDS011;2267;48.816;9.230;2023-03-19T08:05:31;6.17;;;5.40;;
4508;SDS011;2267;48.816;9.230;2023-03-19T08:07:57;5.47;;;4.70;;
4508;SDS011;2267;48.816;9.230;2023-03-19T08:10:24;5.30;;;4.80;;
4508;SDS011;2267;48.816;9.230;2023-03-19T08:12:51;5.67;;;4.70;;
4508;SDS011;2267;48.816;9.230;2023-03-19T08:15:18;5.00;;;4.30;;
4508;SDS011;2267;48.816;9.230;2023-03-19T08:17:44;5.57;;;4.50;;
4508;SDS011;2267;48.816;9.230;2023-03-19T08:20:12;6.80;;;4.57;;
4508;SDS011;2267;48.816;9.230;2023-03-19T08:22:41;5.67;;;4.20;;
4508;SDS011;2267;48.816;9.230;2023-03-19T08:25:09;5.97;;;5.40;;
4508;SDS011;2267;48.816;9.230;2023-03-19T08:27:36;5.90;;;5.30;;
4508;SDS011;2267;48.816;9.230;2023-03-19T08:30:04;6.23;;;5.10;;
4508;SDS011;2267;48.816;9.230;2023-03-19T08:32:32;5.90;;;4.57;;
4508;SDS011;2267;48.816;9.230;2023-03-19T08:34:59;5.87;;;5.37;;
4508;SDS011;2267;48.816;9.230;2023-03-19T08:37:26;5.47;;;4.97;;
4508;SDS011;2267;48.816;9.230;2023-03-19T08:39:53;5.90;;;4.70;;
4508;SDS011;2267;48.816;9.230;2023-03-19T08:42:20;5.20;;;4.70;;
4508;SDS011;2267;48.816;9.230;2023-03-19T08:44:48;6.10;;;5.50;;
4508;SDS011;2267;48.816;9.230;2023-03-19T08:47:14;6.80;;;5.40;;
4508;SDS011;2267;48.816;9.230;2023-03-19T08:49:41;6.77;;;5.97;;
4508;SDS011;2267;48.816;9.230;2023-03-19T08:52:08;5.17;;;4.67;;
4508;SDS011;2267;48.816;9.230;2023-03-19T08:54:35;6.37;;;5.63;;
4508;SDS011;2267;48.816;9.230;2023-03-19T08:57:02;5.70;;;5.20;;
4508;SDS011;2267;48.816;9.230;2023-03-19T08:59:29;4.93;;;4.43;;
4508;SDS011;2267;48.816;9.230;2023-03-19T09:01:59;6.77;;;5.17;;
4508;SDS011;2267;48.816;9.230;2023-03-19T09:04:26;5.27;;;4.77;;
4508;SDS011;2267;48.816;9.230;2023-03-19T09:06:54;5.80;;;5.30;;
4508;SDS011;2267;48.816;9.230;2023-03-19T09:09:21;5.43;;;4.93;;
4508;SDS011;2267;48.816;9.230;2023-03-19T09:11:49;6.80;;;5.60;;
4508;SDS011;2267;48.816;9.230;2023-03-19T09:14:16;5.93;;;5.30;;
4508;SDS011;2267;48.816;9.230;2023-03-19T09:16:45;6.27;;;4.57;;
4508;SDS011;2267;48.816;9.230;2023-03-19T09:19:12;5.87;;;4.60;;
4508;SDS011;2267;48.816;9.230;2023-03-19T09:21:38;5.97;;;5.20;;
4508;SDS011;2267;48.816;9.230;2023-03-19T09:24:06;5.50;;;5.00;;
4508;SDS011;2267;48.816;9.230;2023-03-19T09:26:33;4.50;;;4.10;;
4508;SDS011;2267;48.816;9.230;2023-03-19T09:29:00;5.27;;;4.77;;
4508;SDS011;2267;48.816;9.230;2023-03-19T09:31:27;5.30;;;4.87;;
4508;SDS011;2267;48.816;9.230;2023-03-19T09:33:55;4.47;;;4.17;;
4508;SDS011;2267;48.816;9.230;2023-03-19T09:36:22;5.03;;;3.87;;
4508;SDS011;2267;48.816;9.230;2023-03-19T09:38:49;5.27;;;4.53;;
4508;SDS011;2267;48.816;9.230;2023-03-19T09:41:23;4.07;;;3.77;;
4508;SDS011;2267;48.816;9.230;2023-03-19T09:44:23;4.53;;;4.13;;
4508;SDS011;2267;48.816;9.230;2023-03-19T09:49:55;4.50;;;4.10;;
4508;SDS011;2267;48.816;9.230;2023-03-19T09:57:48;3.90;;;3.50;;
4508;SDS011;2267;48.816;9.230;2023-03-19T10:00:35;4.30;;;3.43;;
4508;SDS011;2267;48.816;9.230;2023-03-19T10:11:02;5.00;;;4.27;;
4508;SDS011;2267;48.816;9.230;2023-03-19T10:16:19;6.23;;;5.70;;
4508;SDS011;2267;48.816;9.230;2023-03-19T10:18:50;5.93;;;5.30;;
4508;SDS011;2267;48.816;9.230;2023-03-19T10:21:36;4.67;;;4.20;;
4508;SDS011;2267;48.816;9.230;2023-03-19T10:24:37;4.80;;;4.27;;
4508;SDS011;2267;48.816;9.230;2023-03-19T10:27:08;4.97;;;3.73;;
4508;SDS011;2267;48.816;9.230;2023-03-19T10:29:41;4.57;;;4.17;;
4508;SDS011;2267;48.816;9.230;2023-03-19T10:35:47;6.03;;;4.40;;
4508;SDS011;2267;48.816;9.230;2023-03-19T10:38:21;4.97;;;3.63;;
4508;SDS011;2267;48.816;9.230;2023-03-19T10:40:54;3.70;;;2.93;;
4508;SDS011;2267;48.816;9.230;2023-03-19T10:43:29;4.33;;;3.27;;
4508;SDS011;2267;48.816;9.230;2023-03-19T10:45:57;3.00;;;2.70;;
4508;SDS011;2267;48.816;9.230;2023-03-19T10:48:24;4.27;;;3.40;;
4508;SDS011;2267;48.816;9.230;2023-03-19T10:58:33;4.33;;;2.93;;
4508;SDS011;2267;48.816;9.230;2023-03-19T11:01:03;3.27;;;2.77;;
4508;SDS011;2267;48.816;9.230;2023-03-19T11:03:34;3.40;;;2.50;;
4508;SDS011;2267;48.816;9.230;2023-03-19T11:08:39;3.30;;;2.40;;
4508;SDS011;2267;48.816;9.230;2023-03-19T11:11:05;3.57;;;3.17;;
4508;SDS011;2267;48.816;9.230;2023-03-19T11:13:48;3.60;;;3.20;;
4508;SDS011;2267;48.816;9.230;2023-03-19T11:16:14;3.60;;;3.00;;
4508;SDS011;2267;48.816;9.230;2023-03-19T11:18:41;3.33;;;2.67;;
4508;SDS011;2267;48.816;9.230;2023-03-19T11:21:22;2.57;;;2.07;;
4508;SDS011;2267;48.816;9.230;2023-03-19T11:23:59;3.60;;;2.80;;
4508;SDS011;2267;48.816;9.230;2023-03-19T11:26:28;2.60;;;2.03;;
4508;SDS011;2267;48.816;9.230;2023-03-19T11:29:00;3.03;;;2.13;;
4508;SDS011;2267;48.816;9.230;2023-03-19T11:31:40;2.47;;;2.00;;
4508;SDS011;2267;48.816;9.230;2023-03-19T11:42:43;5.83;;;2.77;;
4508;SDS011;2267;48.816;9.230;2023-03-19T11:51:27;3.33;;;2.30;;
4508;SDS011;2267;48.816;9.230;2023-03-19T11:54:21;3.63;;;2.50;;
4508;SDS011;2267;48.816;9.230;2023-03-19T11:56:58;3.23;;;2.20;;
4508;SDS011;2267;48.816;9.230;2023-03-19T12:05:37;2.97;;;2.00;;
4508;SDS011;2267;48.816;9.230;2023-03-19T12:23:32;3.43;;;2.50;;
4508;SDS011;2267;48.816;9.230;2023-03-19T12:26:11;2.87;;;2.07;;
4508;SDS011;2267;48.816;9.230;2023-03-19T12:35:07;3.30;;;2.10;;
4508;SDS011;2267;48.816;9.230;2023-03-19T12:38:26;3.90;;;1.97;;
4508;SDS011;2267;48.816;9.230;2023-03-19T12:40:37;3.30;;;2.30;;
4508;SDS011;2267;48.816;9.230;2023-03-19T12:43:20;4.23;;;2.50;;
4508;SDS011;2267;48.816;9.230;2023-03-19T12:46:17;2.23;;;1.80;;
4508;SDS011;2267;48.816;9.230;2023-03-19T12:48:53;3.63;;;2.23;;
4508;SDS011;2267;48.816;9.230;2023-03-19T12:51:34;3.20;;;2.23;;
4508;SDS011;2267;48.816;9.230;2023-03-19T12:54:12;3.17;;;2.27;;
4508;SDS011;2267;48.816;9.230;2023-03-19T12:59:55;3.33;;;2.30;;
4508;SDS011;2267;48.816;9.230;2023-03-19T13:02:37;3.10;;;2.27;;
4508;SDS011;2267;48.816;9.230;2023-03-19T13:05:31;2.97;;;2.30;;
4508;SDS011;2267;48.816;9.230;2023-03-19T13:08:17;2.90;;;2.53;;
4508;SDS011;2267;48.816;9.230;2023-03-19T13:10:51;4.17;;;2.27;;
4508;SDS011;2267;48.816;9.230;2023-03-19T13:21:54;3.70;;;2.60;;
4508;SDS011;2267;48.816;9.230;2023-03-19T13:26:59;4.67;;;3.57;;
4508;SDS011;2267;48.816;9.230;2023-03-19T13:29:27;3.00;;;2.53;;
4508;SDS011;2267;48.816;9.230;2023-03-19T13:32:19;5.27;;;3.50;;
4508;SDS011;2267;48.816;9.230;2023-03-19T13:34:50;4.60;;;2.63;;
4508;SDS011;2267;48.816;9.230;2023-03-19T13:37:33;3.27;;;2.53;;
4508;SDS011;2267;48.816;9.230;2023-03-19T13:40:02;2.17;;;1.60;;
4508;SDS011;2267;48.816;9.230;2023-03-19T13:42:35;2.80;;;2.10;;
4508;SDS011;2267;48.816;9.230;2023-03-19T13:50:58;4.30;;;2.50;;
4508;SDS011;2267;48.816;9.230;2023-03-19T13:53:36;2.93;;;2.30;;
4508;SDS011;2267;48.816;9.230;2023-03-19T13:56:09;2.40;;;1.97;;
4508;SDS011;2267;48.816;9.230;2023-03-19T14:01:41;3.30;;;2.30;;
4508;SDS011;2267;48.816;9.230;2023-03-19T14:06:52;2.60;;;2.03;;
4508;SDS011;2267;48.816;9.230;2023-03-19T14:09:32;4.10;;;2.67;;
4508;SDS011;2267;48.816;9.230;2023-03-19T14:14:42;2.80;;;2.07;;
4508;SDS011;2267;48.816;9.230;2023-03-19T14:22:55;2.93;;;2.20;;
4508;SDS011;2267;48.816;9.230;2023-03-19T14:25:50;3.63;;;1.87;;
4508;SDS011;2267;48.816;9.230;2023-03-19T14:36:40;2.70;;;1.87;;
4508;SDS011;2267;48.816;9.230;2023-03-19T14:39:17;2.10;;;1.77;;
4508;SDS011;2267;48.816;9.230;2023-03-19T14:42:07;2.40;;;2.13;;
4508;SDS011;2267;48.816;9.230;2023-03-19T14:50:58;3.87;;;2.60;;
4508;SDS011;2267;48.816;9.230;2023-03-19T14:53:34;4.27;;;2.87;;
4508;SDS011;2267;48.816;9.230;2023-03-19T14:56:13;3.67;;;2.87;;
4508;SDS011;2267;48.816;9.230;2023-03-19T14:58:48;2.63;;;2.23;;
4508;SDS011;2267;48.816;9.230;2023-03-19T15:01:16;4.47;;;3.47;;
4508;SDS011;2267;48.816;9.230;2023-03-19T15:03:44;3.33;;;2.70;;
4508;SDS011;2267;48.816;9.230;2023-03-19T15:06:12;7.80;;;2.90;;
4508;SDS011;2267;48.816;9.230;2023-03-19T15:08:40;3.60;;;3.23;;
4508;SDS011;2267;48.816;9.230;2023-03-19T15:19:08;2.80;;;2.10;;
4508;SDS011;2267;48.816;9.230;2023-03-19T15:21:37;4.97;;;2.13;;
4508;SDS011;2267;48.816;9.230;2023-03-19T15:24:05;3.50;;;2.07;;
4508;SDS011;2267;48.816;9.230;2023-03-19T15:26:38;3.60;;;2.10;;
4508;SDS011;2267;48.816;9.230;2023-03-19T15:29:05;2.70;;;1.97;;
4508;SDS011;2267;48.816;9.230;2023-03-19T15:34:23;3.10;;;2.00;;
4508;SDS011;2267;48.816;9.230;2023-03-19T15:39:28;2.70;;;2.00;;
4508;SDS011;2267;48.816;9.230;2023-03-19T15:41:59;2.50;;;2.10;;
4508;SDS011;2267;48.816;9.230;2023-03-19T15:44:36;2.83;;;1.80;;
4508;SDS011;2267;48.816;9.230;2023-03-19T15:47:10;2.57;;;2.20;;
4508;SDS011;2267;48.816;9.230;2023-03-19T15:49:42;3.03;;;2.73;;
4508;SDS011;2267;48.816;9.230;2023-03-19T15:52:17;3.93;;;2.50;;
4508;SDS011;2267;48.816;9.230;2023-03-19T15:54:45;4.37;;;3.00;;
4508;SDS011;2267;48.816;9.230;2023-03-19T15:57:12;3.97;;;2.43;;
4508;SDS011;2267;48.816;9.230;2023-03-19T15:59:41;4.80;;;2.33;;
4508;SDS011;2267;48.816;9.230;2023-03-19T16:02:16;4.20;;;2.90;;
4508;SDS011;2267;48.816;9.230;2023-03-19T16:04:58;4.03;;;2.77;;
4508;SDS011;2267;48.816;9.230;2023-03-19T16:07:48;3.13;;;2.83;;
4508;SDS011;2267;48.816;9.230;2023-03-19T16:12:59;3.97;;;2.83;;
4508;SDS011;2267;48.816;9.230;2023-03-19T16:15:39;3.80;;;3.00;;
4508;SDS011;2267;48.816;9.230;2023-03-19T16:20:43;4.77;;;4.27;;
4508;SDS011;2267;48.816;9.230;2023-03-19T16:23:15;3.47;;;3.17;;
4508;SDS011;2267;48.816;9.230;2023-03-19T16:25:43;3.60;;;3.30;;
4508;SDS011;2267;48.816;9.230;2023-03-19T16:28:15;3.60;;;3.30;;
4508;SDS011;2267;48.816;9.230;2023-03-19T16:30:45;3.47;;;2.87;;
4508;SDS011;2267;48.816;9.230;2023-03-19T16:33:13;4.53;;;3.60;;
4508;SDS011;2267;48.816;9.230;2023-03-19T16:35:41;4.43;;;4.03;;
4508;SDS011;2267;48.816;9.230;2023-03-19T16:38:13;3.60;;;3.20;;
4508;SDS011;2267;48.816;9.230;2023-03-19T16:43:19;3.03;;;2.53;;
4508;SDS011;2267;48.816;9.230;2023-03-19T16:45:51;4.40;;;3.10;;
4508;SDS011;2267;48.816;9.230;2023-03-19T16:48:31;2.90;;;2.50;;
4508;SDS011;2267;48.816;9.230;2023-03-19T16:50:57;4.33;;;3.07;;
4508;SDS011;2267;48.816;9.230;2023-03-19T16:53:25;3.80;;;3.40;;
4508;SDS011;2267;48.816;9.230;2023-03-19T16:55:55;4.37;;;2.93;;
4508;SDS011;2267;48.816;9.230;2023-03-19T16:58:26;4.27;;;3.63;;
4508;SDS011;2267;48.816;9.230;2023-03-19T17:01:17;3.20;;;2.90;;
4508;SDS011;2267;48.816;9.230;2023-03-19T17:03:46;4.10;;;3.67;;
4508;SDS011;2267;48.816;9.230;2023-03-19T17:06:14;5.07;;;3.60;;
4508;SDS011;2267;48.816;9.230;2023-03-19T17:08:43;3.53;;;3.23;;
4508;SDS011;2267;48.816;9.230;2023-03-19T17:11:15;3.70;;;3.40;;
4508;SDS011;2267;48.816;9.230;2023-03-19T17:13:59;4.10;;;3.43;;
4508;SDS011;2267;48.816;9.230;2023-03-19T17:16:27;3.77;;;3.00;;
4508;SDS011;2267;48.816;9.230;2023-03-19T17:18:55;5.90;;;3.43;;
4508;SDS011;2267;48.816;9.230;2023-03-19T17:21:23;4.17;;;3.77;;
4508;SDS011;2267;48.816;9.230;2023-03-19T17:23:53;5.00;;;3.43;;
4508;SDS011;2267;48.816;9.230;2023-03-19T17:26:21;4.20;;;3.80;;
4508;SDS011;2267;48.816;9.230;2023-03-19T17:28:53;4.03;;;3.40;;
4508;SDS011;2267;48.816;9.230;2023-03-19T17:31:25;3.53;;;3.23;;
4508;SDS011;2267;48.816;9.230;2023-03-19T17:33:59;4.50;;;4.10;;
4508;SDS011;2267;48.816;9.230;2023-03-19T17:36:29;4.53;;;4.13;;
4508;SDS011;2267;48.816;9.230;2023-03-19T17:38:56;4.63;;;4.03;;
4508;SDS011;2267;48.816;9.230;2023-03-19T17:41:24;5.33;;;4.83;;
4508;SDS011;2267;48.816;9.230;2023-03-19T17:43:51;5.47;;;4.90;;
4508;SDS011;2267;48.816;9.230;2023-03-19T17:46:18;5.33;;;4.80;;
4508;SDS011;2267;48.816;9.230;2023-03-19T17:48:50;5.90;;;5.40;;
4508;SDS011;2267;48.816;9.230;2023-03-19T17:51:17;6.13;;;5.60;;
4508;SDS011;2267;48.816;9.230;2023-03-19T17:53:48;6.43;;;5.83;;
4508;SDS011;2267;48.816;9.230;2023-03-19T17:56:18;8.73;;;7.83;;